createdAt,value
2022-09-25T00:03:53.638Z,8.30
2022-09-25T00:09:07.865Z,7.17
2022-09-25T00:14:28.723Z,7.00
2022-09-25T00:19:55.213Z,7.20
2022-09-25T00:24:59.753Z,7.40
2022-09-25T00:30:12.989Z,7.30
2022-09-25T00:35:24.233Z,7.27
2022-09-25T00:40:37.459Z,8.47
2022-09-25T00:45:46.355Z,7.80
2022-09-25T00:51:02.930Z,8.97
2022-09-25T00:56:20.182Z,8.83
2022-09-25T01:01:41.263Z,10.23
2022-09-25T01:06:53.553Z,9.23
2022-09-25T01:12:16.583Z,9.67
2022-09-25T01:17:41.456Z,10.50
2022-09-25T01:23:08.327Z,8.53
2022-09-25T01:28:38.615Z,9.03
2022-09-25T01:33:50.247Z,8.83
2022-09-25T01:39:14.359Z,9.23
2022-09-25T01:44:33.279Z,9.67
2022-09-25T01:49:59.788Z,10.43
2022-09-25T01:55:14.690Z,11.27
2022-09-25T02:00:52.141Z,9.70
2022-09-25T02:06:07.902Z,9.50
2022-09-25T02:11:20.470Z,10.43
2022-09-25T02:16:35.615Z,10.10
2022-09-25T02:27:16.719Z,10.60
2022-09-25T02:32:27.099Z,9.93
2022-09-25T02:37:36.003Z,11.93
2022-09-25T02:42:52.168Z,10.33
2022-09-25T02:48:21.348Z,10.97
2022-09-25T02:53:40.078Z,11.20
2022-09-25T02:58:51.105Z,10.30
2022-09-25T03:04:03.132Z,9.57
2022-09-25T03:09:19.036Z,10.17
2022-09-25T03:19:49.942Z,11.20
2022-09-25T03:25:17.969Z,10.53
2022-09-25T03:30:25.331Z,10.43
2022-09-25T03:35:35.559Z,9.93
2022-09-25T03:41:01.812Z,11.93
2022-09-25T03:46:11.570Z,11.17
2022-09-25T03:51:21.730Z,10.93
2022-09-25T03:56:43.751Z,9.90
2022-09-25T04:02:02.793Z,10.17
2022-09-25T04:07:11.814Z,11.20
2022-09-25T04:12:22.236Z,11.37
2022-09-25T04:17:34.021Z,12.10
2022-09-25T04:22:49.188Z,11.03
2022-09-25T04:27:59.671Z,11.70
2022-09-25T04:33:21.424Z,11.50
2022-09-25T04:38:36.907Z,11.20
2022-09-25T04:49:21.894Z,11.93
2022-09-25T04:54:32.056Z,12.63
2022-09-25T04:59:41.096Z,11.20
2022-09-25T05:04:47.100Z,11.10
2022-09-25T05:09:52.395Z,12.57
2022-09-25T05:15:02.813Z,11.60
2022-09-25T05:20:13.297Z,11.77
2022-09-25T05:25:35.738Z,13.17
2022-09-25T05:31:15.657Z,11.53
2022-09-25T05:36:23.409Z,12.07
2022-09-25T05:41:37.926Z,12.03
2022-09-25T05:46:49.270Z,11.53
2022-09-25T05:51:57.986Z,11.73
2022-09-25T05:57:05.981Z,11.97
2022-09-25T06:02:15.019Z,12.83
2022-09-25T06:07:30.441Z,12.10
2022-09-25T06:13:06.357Z,13.17
2022-09-25T06:24:14.927Z,12.43
2022-09-25T06:34:48.133Z,13.60
2022-09-25T06:39:53.124Z,13.83
2022-09-25T06:45:10.236Z,11.43
2022-09-25T06:50:21.209Z,13.77
2022-09-25T06:55:48.502Z,13.50
2022-09-25T07:01:13.069Z,13.13
2022-09-25T07:06:39.566Z,13.87
2022-09-25T07:11:49.911Z,13.73
2022-09-25T07:17:05.618Z,16.20
2022-09-25T07:22:19.005Z,14.77
2022-09-25T07:27:27.889Z,13.60
2022-09-25T07:33:00.187Z,13.85
2022-09-25T07:38:14.755Z,14.00
2022-09-25T07:43:23.273Z,14.25
2022-09-25T07:48:38.446Z,13.77
2022-09-25T07:53:47.711Z,13.32
2022-09-25T07:59:00.158Z,13.85
2022-09-25T08:04:27.474Z,13.30
2022-09-25T08:09:39.725Z,13.05
2022-09-25T08:14:52.748Z,13.40
2022-09-25T08:20:10.319Z,13.35
2022-09-25T08:25:19.064Z,13.40
2022-09-25T08:31:08.601Z,12.85
2022-09-25T08:36:49.148Z,13.80
2022-09-25T08:42:27.309Z,12.95
2022-09-25T08:47:56.599Z,12.40
2022-09-25T08:58:35.541Z,11.68
2022-09-25T09:03:54.529Z,12.50
2022-09-25T09:09:18.428Z,12.27
2022-09-25T09:14:41.806Z,12.80
2022-09-25T09:19:56.239Z,10.55
2022-09-25T09:25:10.434Z,11.35
2022-09-25T09:30:28.178Z,10.75
2022-09-25T09:35:42.667Z,9.95
2022-09-25T09:41:05.971Z,11.13
2022-09-25T09:46:37.078Z,10.80
2022-09-25T09:51:49.016Z,10.55
2022-09-25T09:57:04.501Z,10.68
2022-09-25T10:02:42.201Z,11.75
2022-09-25T10:08:03.558Z,10.80
2022-09-25T10:13:19.570Z,11.55
2022-09-25T10:18:36.395Z,11.57
2022-09-25T10:24:11.556Z,11.32
2022-09-25T10:29:44.369Z,11.20
2022-09-25T10:35:31.084Z,11.93
2022-09-25T10:40:40.062Z,11.07
2022-09-25T10:45:46.443Z,11.57
2022-09-25T10:51:24.949Z,12.65
2022-09-25T10:56:40.661Z,11.68
2022-09-25T11:01:47.522Z,11.90
2022-09-25T11:07:07.705Z,11.82
2022-09-25T11:12:19.100Z,11.45
2022-09-25T11:17:34.040Z,11.23
2022-09-25T11:22:54.452Z,12.23
2022-09-25T11:28:12.535Z,11.68
2022-09-25T11:33:32.524Z,11.68
2022-09-25T11:39:11.672Z,11.55
2022-09-25T11:44:35.062Z,10.25
2022-09-25T11:49:41.220Z,9.20
2022-09-25T11:55:06.854Z,9.57
2022-09-25T12:00:23.326Z,8.98
2022-09-25T12:05:55.504Z,8.95
2022-09-25T12:11:22.689Z,8.35
2022-09-25T12:16:41.792Z,10.30
2022-09-25T12:21:54.086Z,8.85
2022-09-25T12:27:34.495Z,7.95
2022-09-25T12:33:18.852Z,8.35
2022-09-25T12:38:56.044Z,6.68
2022-09-25T12:44:08.077Z,9.63
2022-09-25T12:49:18.091Z,7.30
2022-09-25T12:54:33.392Z,7.78
2022-09-25T12:59:48.421Z,7.05
2022-09-25T13:05:08.194Z,5.57
2022-09-25T13:10:35.626Z,6.55
2022-09-25T13:21:32.027Z,6.82
2022-09-25T13:26:49.298Z,8.02
2022-09-25T13:32:07.044Z,6.65
2022-09-25T13:37:18.631Z,6.75
2022-09-25T13:42:44.096Z,7.20
2022-09-25T13:48:13.049Z,6.05
2022-09-25T13:53:52.552Z,6.95
2022-09-25T13:59:28.154Z,5.75
2022-09-25T14:04:40.996Z,5.07
2022-09-25T14:09:55.236Z,7.55
2022-09-25T14:15:18.737Z,7.65
2022-09-25T14:20:44.041Z,5.70
2022-09-25T14:26:30.037Z,5.25
2022-09-25T14:31:55.213Z,4.93
2022-09-25T14:37:29.924Z,5.60
2022-09-25T14:43:02.514Z,6.93
2022-09-25T14:48:18.847Z,4.70
2022-09-25T14:53:40.591Z,5.47
2022-09-25T14:58:52.834Z,4.40
2022-09-25T15:04:07.698Z,5.32
2022-09-25T15:09:32.796Z,5.22
2022-09-25T15:14:39.390Z,5.38
2022-09-25T15:19:49.834Z,6.15
2022-09-25T15:25:05.765Z,3.72
2022-09-25T15:30:24.296Z,5.70
2022-09-25T15:35:30.638Z,7.00
2022-09-25T15:40:38.394Z,3.83
2022-09-25T15:45:54.641Z,3.47
2022-09-25T15:51:08.942Z,5.38
2022-09-25T15:56:31.264Z,3.83
2022-09-25T16:02:02.618Z,6.93
2022-09-25T16:07:35.759Z,7.68
2022-09-25T16:12:51.623Z,6.32
2022-09-25T16:18:07.422Z,5.28
2022-09-25T16:23:33.012Z,4.47
2022-09-25T16:28:41.847Z,5.90
2022-09-25T16:34:02.668Z,4.85
2022-09-25T16:39:27.086Z,7.03
2022-09-25T16:45:07.996Z,5.05
2022-09-25T16:50:17.482Z,6.10
2022-09-25T16:55:24.587Z,5.80
2022-09-25T17:00:33.261Z,7.03
2022-09-25T17:05:43.349Z,5.78
2022-09-25T17:10:52.843Z,6.95
2022-09-25T17:16:06.787Z,7.65
2022-09-25T17:21:17.470Z,7.47
2022-09-25T17:26:29.682Z,9.02
2022-09-25T17:31:40.591Z,8.35
2022-09-25T17:36:55.310Z,6.07
2022-09-25T17:42:00.595Z,8.88
2022-09-25T17:47:16.408Z,8.13
2022-09-25T17:52:24.604Z,6.90
2022-09-25T17:57:32.741Z,7.68
2022-09-25T18:03:01.584Z,9.38
2022-09-25T18:08:06.554Z,5.97
2022-09-25T18:13:21.128Z,8.10
2022-09-25T18:18:48.815Z,6.50
2022-09-25T18:24:05.399Z,8.63
2022-09-25T18:29:27.950Z,7.65
2022-09-25T18:34:38.772Z,6.18
2022-09-25T18:39:58.207Z,6.55
2022-09-25T18:45:05.438Z,6.55
2022-09-25T18:50:20.953Z,6.70
2022-09-25T18:55:38.146Z,6.63
2022-09-25T19:00:46.415Z,7.30
2022-09-25T19:06:14.898Z,9.05
2022-09-25T19:11:23.910Z,7.72
2022-09-25T19:16:37.858Z,8.50
2022-09-25T19:21:53.921Z,8.20
2022-09-25T19:27:06.911Z,7.25
2022-09-25T19:32:14.319Z,12.07
2022-09-25T19:37:32.001Z,8.10
2022-09-25T19:42:37.730Z,8.98
2022-09-25T19:47:50.759Z,8.18
2022-09-25T19:52:58.188Z,9.13
2022-09-25T19:58:02.499Z,8.45
2022-09-25T20:03:17.853Z,10.15
2022-09-25T20:08:31.239Z,8.38
2022-09-25T20:13:36.881Z,7.47
2022-09-25T20:18:47.666Z,10.70
2022-09-25T20:24:00.070Z,8.77
2022-09-25T20:29:06.435Z,9.48
2022-09-25T20:34:23.418Z,7.38
2022-09-25T20:39:30.558Z,8.15
2022-09-25T20:44:36.325Z,7.38
2022-09-25T20:49:51.720Z,8.20
2022-09-25T20:55:08.896Z,8.90
2022-09-25T21:00:19.284Z,7.68
2022-09-25T21:05:45.267Z,6.88
2022-09-25T21:11:17.212Z,10.50
2022-09-25T21:16:43.112Z,8.25
2022-09-25T21:22:03.160Z,7.63
2022-09-25T21:27:13.446Z,7.75
2022-09-25T21:32:33.601Z,7.90
2022-09-25T21:37:56.158Z,8.43
2022-09-25T21:43:13.651Z,7.90
2022-09-25T21:48:22.215Z,7.78
2022-09-25T21:53:32.045Z,8.70
2022-09-25T21:58:55.188Z,14.30
2022-09-25T22:04:16.492Z,8.68
2022-09-25T22:09:26.795Z,8.48
2022-09-25T22:14:33.830Z,12.20
2022-09-25T22:19:40.015Z,9.65
2022-09-25T22:24:47.168Z,10.07
2022-09-25T22:30:06.500Z,10.82
2022-09-25T22:35:26.145Z,10.25
2022-09-25T22:40:37.549Z,10.60
2022-09-25T22:45:52.032Z,10.02
2022-09-25T22:50:57.478Z,12.18
2022-09-25T22:56:15.080Z,11.68
2022-09-25T23:01:31.470Z,10.45
2022-09-25T23:06:47.108Z,14.27
2022-09-25T23:11:55.672Z,10.93
2022-09-25T23:17:08.356Z,13.07
2022-09-25T23:22:22.857Z,11.10
2022-09-25T23:27:27.695Z,10.98
2022-09-25T23:32:33.813Z,11.05
2022-09-25T23:37:41.299Z,9.23
2022-09-25T23:42:50.536Z,10.13
2022-09-25T23:48:06.444Z,9.30
2022-09-25T23:53:24.881Z,10.95
2022-09-25T23:58:47.797Z,11.20
